Time;durP1;ratioP1;P1;durP2;ratioP2;P2;SDS_P1;SDS_P2;PMS_P1;PMS_P2;Temp;Humidity;BMP_temperature;BMP_pressure;BME280_temperature;BME280_humidity;BME280_pressure;Samples;Min_cycle;Max_cycle;Signal;HPM_P1;HPM_P2
2023/07/24 03:02:05;;;;;;;4.68;3.50;;;25.90;44.70;;;;;;5109342;23;45912;-87
2023/07/24 03:04:31;;;;;;;3.80;3.37;;;25.90;44.70;;;;;;4905544;28;45933;-86
2023/07/24 03:07:00;;;;;;;3.90;3.47;;;25.90;44.70;;;;;;4940838;28;45576;-91
2023/07/24 03:09:25;;;;;;;4.00;3.42;;;25.90;44.70;;;;;;4927581;28;47050;-87
2023/07/24 03:11:51;;;;;;;3.40;3.10;;;25.90;44.70;;;;;;4907831;28;45507;-87
2023/07/24 03:14:16;;;;;;;4.70;3.60;;;25.90;44.70;;;;;;4923082;28;45289;-86
2023/07/24 03:16:42;;;;;;;3.67;3.30;;;25.90;44.70;;;;;;4898642;28;45302;-84
2023/07/24 03:19:08;;;;;;;3.90;3.50;;;25.90;44.70;;;;;;4929237;28;46802;-85
2023/07/24 03:21:33;;;;;;;4.40;3.47;;;25.90;44.70;;;;;;4919846;28;44993;-83
2023/07/24 03:23:59;;;;;;;3.90;3.40;;;25.90;44.70;;;;;;4924161;28;44958;-84
2023/07/24 03:26:24;;;;;;;3.90;3.50;;;25.80;44.70;;;;;;4938443;28;45128;-84
2023/07/24 03:28:50;;;;;;;3.83;3.43;;;25.90;44.80;;;;;;4930295;28;45708;-90
2023/07/24 03:31:15;;;;;;;4.40;3.78;;;25.90;44.80;;;;;;4942599;28;44986;-88
2023/07/24 03:33:41;;;;;;;3.90;3.40;;;25.90;44.80;;;;;;4933124;28;45150;-84
2023/07/24 03:36:06;;;;;;;4.15;3.55;;;25.90;44.80;;;;;;4931919;28;45132;-86
2023/07/24 03:38:32;;;;;;;4.43;3.83;;;25.80;44.70;;;;;;4945192;28;45462;-85
2023/07/24 03:40:58;;;;;;;3.97;3.57;;;25.90;44.80;;;;;;4922900;28;45060;-85
2023/07/24 03:43:23;;;;;;;4.10;3.43;;;25.80;44.70;;;;;;4916907;28;45064;-85
2023/07/24 03:45:49;;;;;;;4.20;3.53;;;25.90;44.80;;;;;;4909985;28;44968;-86
2023/07/24 03:48:14;;;;;;;4.10;3.40;;;25.90;44.80;;;;;;4914924;28;47668;-84
2023/07/24 03:50:40;;;;;;;4.53;4.00;;;25.90;44.80;;;;;;4923299;28;45015;-83
2023/07/24 03:53:06;;;;;;;4.05;3.45;;;25.90;44.80;;;;;;4935213;28;45003;-86
2023/07/24 03:55:32;;;;;;;4.63;3.90;;;25.90;44.80;;;;;;4915332;28;45387;-85
2023/07/24 03:57:57;;;;;;;4.05;3.60;;;25.90;44.80;;;;;;4936753;28;45180;-85
2023/07/24 04:00:23;;;;;;;4.00;3.45;;;25.90;44.90;;;;;;4927629;28;45529;-84
2023/07/24 04:02:48;;;;;;;5.13;3.93;;;25.90;44.90;;;;;;4899490;28;45467;-84
2023/07/24 04:05:14;;;;;;;4.10;3.43;;;25.90;44.80;;;;;;4900131;28;45144;-82
2023/07/24 04:07:39;;;;;;;4.93;3.50;;;25.90;44.80;;;;;;4916910;28;46947;-85
2023/07/24 04:10:09;;;;;;;4.43;3.70;;;25.90;44.90;;;;;;4952912;28;45081;-89
2023/07/24 04:12:37;;;;;;;3.88;3.47;;;25.90;44.90;;;;;;4898635;28;45479;-86
2023/07/24 04:15:13;;;;;;;5.20;4.20;;;25.90;44.90;;;;;;4952840;28;45297;-89
2023/07/24 04:17:40;;;;;;;3.90;3.50;;;25.80;44.80;;;;;;4959366;28;45366;-83
2023/07/24 04:20:09;;;;;;;4.35;3.67;;;25.80;44.90;;;;;;4951037;28;45112;-87
2023/07/24 04:22:35;;;;;;;5.18;3.92;;;25.80;44.80;;;;;;4949655;28;45003;-84
2023/07/24 04:25:01;;;;;;;4.65;3.50;;;25.90;44.90;;;;;;4957807;28;44947;-82
2023/07/24 04:27:26;;;;;;;4.72;3.95;;;25.90;44.90;;;;;;4948409;28;45552;-84
2023/07/24 04:29:52;;;;;;;4.22;3.53;;;25.90;44.90;;;;;;4960373;28;44934;-83
2023/07/24 04:32:17;;;;;;;3.80;3.40;;;25.80;44.90;;;;;;4934165;28;45307;-84
2023/07/24 04:34:43;;;;;;;4.32;3.90;;;25.80;44.90;;;;;;4948215;28;44999;-85
2023/07/24 04:37:09;;;;;;;4.78;3.63;;;25.90;45.00;;;;;;4965919;28;45285;-83
2023/07/24 04:39:34;;;;;;;4.47;3.60;;;25.80;44.90;;;;;;4951958;28;45178;-84
2023/07/24 04:42:00;;;;;;;4.60;4.03;;;25.80;45.00;;;;;;4964873;28;45210;-80
2023/07/24 04:44:25;;;;;;;4.07;3.33;;;25.80;44.90;;;;;;4936739;28;45279;-83
2023/07/24 04:46:51;;;;;;;4.03;3.43;;;25.80;45.00;;;;;;4912007;28;46898;-86
2023/07/24 04:49:16;;;;;;;4.60;3.70;;;25.80;44.90;;;;;;4948862;28;45046;-84
2023/07/24 04:51:42;;;;;;;4.80;4.07;;;25.90;45.00;;;;;;4963298;28;45092;-83
2023/07/24 04:54:07;;;;;;;4.43;3.67;;;25.90;45.00;;;;;;4955146;28;45085;-84
2023/07/24 04:56:33;;;;;;;4.45;3.97;;;25.80;45.00;;;;;;4962746;28;45284;-85
2023/07/24 04:58:59;;;;;;;4.25;3.58;;;25.80;45.00;;;;;;4934996;28;44932;-83
2023/07/24 05:01:24;;;;;;;4.35;3.75;;;25.90;45.00;;;;;;4961837;28;44962;-83
2023/07/24 05:03:50;;;;;;;4.30;3.80;;;25.80;45.00;;;;;;4966713;28;45468;-82
2023/07/24 05:06:15;;;;;;;4.70;4.00;;;25.90;45.10;;;;;;4961601;28;46813;-83
2023/07/24 05:08:41;;;;;;;4.57;4.00;;;25.80;45.00;;;;;;4953415;28;44777;-81
2023/07/24 05:11:06;;;;;;;3.90;3.50;;;25.90;45.10;;;;;;4933416;28;45081;-86
2023/07/24 05:13:32;;;;;;;4.87;3.83;;;25.90;45.10;;;;;;4948191;28;46214;-81
2023/07/24 05:15:57;;;;;;;4.50;3.80;;;25.90;45.10;;;;;;4948815;28;47398;-83
2023/07/24 05:18:23;;;;;;;4.03;3.63;;;25.80;45.10;;;;;;4945557;28;44897;-84
2023/07/24 05:20:51;;;;;;;4.60;3.70;;;25.80;45.00;;;;;;4935749;28;45026;-83
2023/07/24 05:23:16;;;;;;;4.35;3.92;;;25.80;45.10;;;;;;4953749;28;45082;-83
2023/07/24 05:25:42;;;;;;;4.57;3.93;;;25.80;45.10;;;;;;4946708;28;46980;-84
2023/07/24 05:28:08;;;;;;;4.50;4.00;;;25.80;45.10;;;;;;4932132;28;45153;-83
2023/07/24 05:30:34;;;;;;;5.07;4.00;;;25.80;45.10;;;;;;4945874;28;45228;-82
2023/07/24 05:32:59;;;;;;;4.77;4.10;;;25.90;45.20;;;;;;4951424;28;44977;-82
2023/07/24 05:35:25;;;;;;;5.00;4.20;;;25.80;45.20;;;;;;4964487;28;45330;-83
2023/07/24 05:37:50;;;;;;;4.57;3.80;;;25.80;45.20;;;;;;4954195;28;44922;-85
2023/07/24 05:40:16;;;;;;;4.97;4.23;;;25.80;45.20;;;;;;4965846;28;44971;-85
2023/07/24 05:42:43;;;;;;;4.37;3.97;;;25.80;45.20;;;;;;4962543;28;45237;-81
2023/07/24 05:45:11;;;;;;;5.03;4.30;;;25.80;45.20;;;;;;4924467;28;46639;-82
2023/07/24 05:47:37;;;;;;;5.10;3.92;;;25.80;45.30;;;;;;4946192;28;45018;-81
2023/07/24 05:50:06;;;;;;;4.60;4.13;;;25.80;45.30;;;;;;4970082;28;45293;-87
2023/07/24 05:52:32;;;;;;;5.13;4.20;;;25.90;45.30;;;;;;4941567;28;45081;-83
2023/07/24 05:54:57;;;;;;;4.70;4.07;;;25.80;45.30;;;;;;4972700;28;45591;-84
2023/07/24 05:57:23;;;;;;;5.03;4.35;;;25.80;45.30;;;;;;4932071;28;45258;-84
2023/07/24 05:59:50;;;;;;;4.80;4.03;;;25.80;45.30;;;;;;4937892;28;45129;-82
2023/07/24 06:02:16;;;;;;;5.00;3.90;;;25.80;45.40;;;;;;4949579;28;45063;-84
2023/07/24 06:04:41;;;;;;;5.30;4.20;;;25.80;45.30;;;;;;4975746;28;46342;-82
2023/07/24 06:07:07;;;;;;;4.80;4.00;;;25.80;45.40;;;;;;4950495;28;45212;-85
2023/07/24 06:09:32;;;;;;;4.67;4.17;;;25.80;45.40;;;;;;4946079;28;44767;-82
2023/07/24 06:11:58;;;;;;;5.17;4.30;;;25.80;45.40;;;;;;4954218;28;45089;-81
2023/07/24 06:14:23;;;;;;;4.60;4.03;;;25.80;45.40;;;;;;4954346;28;46208;-83
2023/07/24 06:16:49;;;;;;;4.78;4.20;;;25.90;45.50;;;;;;4933120;28;45203;-82
2023/07/24 06:19:16;;;;;;;5.60;4.47;;;25.80;45.40;;;;;;4953076;28;44810;-82
2023/07/24 06:21:41;;;;;;;5.35;4.20;;;25.90;45.50;;;;;;4950958;28;45047;-82
2023/07/24 06:24:11;;;;;;;4.63;4.10;;;25.80;45.50;;;;;;4955720;28;46413;-81
2023/07/24 06:26:37;;;;;;;4.85;4.18;;;25.90;45.50;;;;;;4958538;28;45234;-81
2023/07/24 06:29:03;;;;;;;5.55;4.30;;;25.80;45.50;;;;;;4950788;28;45167;-82
2023/07/24 06:31:28;;;;;;;4.40;3.90;;;25.80;45.50;;;;;;4934802;28;45654;-83
2023/07/24 06:33:54;;;;;;;5.25;4.38;;;25.80;45.50;;;;;;4958995;28;45427;-82
2023/07/24 06:36:19;;;;;;;4.97;4.38;;;25.80;45.50;;;;;;4933384;28;45170;-84
2023/07/24 06:38:46;;;;;;;4.63;4.10;;;25.80;45.50;;;;;;4952764;28;45005;-82
2023/07/24 06:41:12;;;;;;;6.55;4.45;;;25.80;45.50;;;;;;4950830;28;45308;-82
2023/07/24 06:43:38;;;;;;;5.37;4.30;;;25.80;45.70;;;;;;4952117;28;47648;-82
2023/07/24 06:46:04;;;;;;;5.40;4.43;;;25.80;45.50;;;;;;4937467;28;45006;-82
2023/07/24 06:48:29;;;;;;;5.63;4.40;;;25.80;45.50;;;;;;4927176;28;44825;-84
2023/07/24 06:50:55;;;;;;;6.03;4.83;;;25.80;45.60;;;;;;4934000;28;45287;-82
2023/07/24 06:53:21;;;;;;;5.27;4.60;;;25.80;45.60;;;;;;4950112;28;47355;-82
2023/07/24 06:55:46;;;;;;;5.03;4.47;;;25.80;45.60;;;;;;4917024;28;45436;-83
2023/07/24 06:58:12;;;;;;;4.93;4.20;;;25.80;45.60;;;;;;4938583;28;44975;-83
2023/07/24 07:00:37;;;;;;;5.30;4.50;;;25.80;45.60;;;;;;4931232;28;45702;-83
2023/07/24 07:03:03;;;;;;;5.40;4.20;;;25.80;45.60;;;;;;4952168;28;47276;-82
2023/07/24 07:05:28;;;;;;;4.90;4.23;;;25.80;45.60;;;;;;4951150;28;45028;-84
2023/07/24 07:07:54;;;;;;;4.80;4.30;;;25.80;45.70;;;;;;4938167;28;44879;-80
2023/07/24 07:10:19;;;;;;;5.60;4.60;;;25.80;46.20;;;;;;4950349;28;45050;-82
2023/07/24 07:12:45;;;;;;;5.07;4.47;;;25.80;45.70;;;;;;4949849;28;47044;-82
2023/07/24 07:15:11;;;;;;;4.88;4.38;;;25.80;45.70;;;;;;4934408;28;45937;-82
2023/07/24 07:17:39;;;;;;;6.07;4.70;;;25.80;45.70;;;;;;4956835;28;45074;-83
2023/07/24 07:20:09;;;;;;;5.13;4.57;;;25.80;45.70;;;;;;4929162;28;44991;-87
2023/07/24 07:22:34;;;;;;;4.63;4.15;;;25.80;45.70;;;;;;4950958;28;45134;-82
2023/07/24 07:25:00;;;;;;;5.50;4.80;;;25.80;45.70;;;;;;4932136;28;45119;-83
2023/07/24 07:27:26;;;;;;;5.30;4.37;;;25.80;45.70;;;;;;4963820;28;45309;-83
2023/07/24 07:29:51;;;;;;;5.00;4.33;;;25.80;45.70;;;;;;4952770;28;45677;-82
2023/07/24 07:32:17;;;;;;;4.87;4.10;;;25.80;45.70;;;;;;4946180;28;47143;-82
2023/07/24 07:34:42;;;;;;;5.43;4.57;;;25.80;45.70;;;;;;4953860;28;45374;-82
2023/07/24 07:37:08;;;;;;;5.47;4.80;;;25.80;45.70;;;;;;4933865;28;44964;-82
2023/07/24 07:39:33;;;;;;;5.17;4.10;;;25.80;45.70;;;;;;4953727;28;44930;-81
2023/07/24 07:41:59;;;;;;;6.32;4.90;;;25.80;45.80;;;;;;4935449;28;45871;-85
2023/07/24 07:44:25;;;;;;;5.35;4.47;;;25.80;45.80;;;;;;4951865;28;45093;-81
2023/07/24 07:46:50;;;;;;;5.65;4.40;;;25.80;45.70;;;;;;4947075;28;44830;-83
2023/07/24 07:49:16;;;;;;;5.47;4.72;;;25.80;45.80;;;;;;4934468;28;44954;-80
2023/07/24 07:51:41;;;;;;;5.28;4.53;;;25.80;45.80;;;;;;4919050;23;45697;-45
2023/07/24 07:54:07;;;;;;;5.47;4.60;;;25.80;45.80;;;;;;4911780;28;45819;-44
2023/07/24 07:56:32;;;;;;;5.87;4.43;;;25.80;46.40;;;;;;4901360;28;45301;-44
2023/07/24 07:58:58;;;;;;;5.50;4.53;;;25.80;45.80;;;;;;4903492;28;45419;-44
2023/07/24 08:01:23;;;;;;;5.27;4.40;;;25.80;46.40;;;;;;4884303;28;45615;-44
2023/07/24 08:03:49;;;;;;;4.93;4.38;;;25.80;45.80;;;;;;4909731;28;45754;-44
2023/07/24 08:06:15;;;;;;;5.85;4.82;;;25.80;45.80;;;;;;4901209;28;45448;-45
2023/07/24 08:08:40;;;;;;;5.07;4.30;;;25.80;45.80;;;;;;4903888;28;45486;-45
2023/07/24 08:11:06;;;;;;;4.97;4.33;;;25.80;45.80;;;;;;4899521;28;45986;-43
2023/07/24 08:13:34;;;;;;;5.03;4.30;;;25.80;45.80;;;;;;4916623;28;64960;-44
2023/07/24 08:16:01;;;;;;;5.13;4.50;;;25.80;45.80;;;;;;4906329;28;45649;-46
2023/07/24 08:18:26;;;;;;;4.80;4.30;;;25.80;45.80;;;;;;4913215;28;45518;-44
2023/07/24 08:20:52;;;;;;;5.35;4.45;;;25.80;45.80;;;;;;4887578;28;45541;-45
2023/07/24 08:23:17;;;;;;;4.95;4.18;;;25.80;45.80;;;;;;4912220;28;45461;-45
2023/07/24 08:26:02;;;;;;;5.60;4.30;;;25.80;45.80;;;;;;4898942;28;46041;-44
2023/07/24 08:28:28;;;;;;;5.30;4.60;;;25.80;45.80;;;;;;4915322;28;46023;-45
2023/07/24 08:30:57;;;;;;;5.47;4.70;;;25.80;45.80;;;;;;4878996;28;46100;-43
2023/07/24 08:33:23;;;;;;;5.13;4.63;;;25.80;45.90;;;;;;4910072;28;45587;-46
2023/07/24 08:36:00;;;;;;;5.30;4.77;;;25.80;45.80;;;;;;4898981;28;46319;-43
2023/07/24 08:38:26;;;;;;;5.75;4.95;;;25.80;45.80;;;;;;4915500;28;45746;-44
2023/07/24 08:41:02;;;;;;;5.37;4.70;;;25.80;45.80;;;;;;4890072;28;46033;-44
2023/07/24 08:43:29;;;;;;;5.40;4.60;;;25.80;45.80;;;;;;4912417;28;46159;-45
2023/07/24 08:45:54;;;;;;;5.40;4.27;;;25.80;45.80;;;;;;4889810;28;45623;-45
2023/07/24 08:48:20;;;;;;;5.33;4.63;;;25.80;45.90;;;;;;4906198;28;47330;-45
2023/07/24 08:50:46;;;;;;;5.33;4.80;;;25.80;45.90;;;;;;4905838;28;46038;-47
2023/07/24 08:53:11;;;;;;;5.30;4.80;;;25.80;45.90;;;;;;4901304;28;45806;-45
2023/07/24 08:55:37;;;;;;;5.67;4.90;;;25.80;45.90;;;;;;4912274;28;45410;-44
2023/07/24 08:58:05;;;;;;;4.85;4.35;;;25.80;45.90;;;;;;4921338;28;44895;-44
2023/07/24 09:00:31;;;;;;;5.10;4.60;;;25.80;45.90;;;;;;4875453;28;46621;-43
2023/07/24 09:02:56;;;;;;;5.05;4.35;;;25.80;45.90;;;;;;4917208;28;45804;-44
2023/07/24 09:05:22;;;;;;;4.95;4.32;;;25.80;45.90;;;;;;4913933;28;45313;-43
2023/07/24 09:07:47;;;;;;;5.23;4.40;;;25.80;45.90;;;;;;4913693;28;45471;-44
2023/07/24 09:10:14;;;;;;;5.67;4.60;;;25.80;45.90;;;;;;4909784;28;45703;-45
2023/07/24 09:12:41;;;;;;;5.22;4.53;;;25.80;45.90;;;;;;4905583;28;45701;-44
2023/07/24 09:15:08;;;;;;;4.75;4.30;;;25.80;45.90;;;;;;4919769;28;45170;-44
2023/07/24 09:17:36;;;;;;;5.35;4.57;;;25.80;45.90;;;;;;4884613;28;45553;-45
2023/07/24 09:20:05;;;;;;;4.95;4.45;;;25.80;45.90;;;;;;4916635;28;45200;-43
2023/07/24 09:22:32;;;;;;;5.05;4.43;;;25.80;45.90;;;;;;4905000;28;45895;-44
2023/07/24 09:24:58;;;;;;;4.97;4.47;;;25.80;45.90;;;;;;4920912;28;46308;-43
2023/07/24 09:27:30;;;;;;;4.93;4.40;;;25.80;46.00;;;;;;4917537;28;45179;-43
2023/07/24 09:29:56;;;;;;;5.23;4.60;;;25.80;46.00;;;;;;4928570;28;45397;-44
2023/07/24 09:32:25;;;;;;;5.27;4.50;;;25.80;45.90;;;;;;4908667;28;45762;-44
2023/07/24 09:34:51;;;;;;;6.25;5.05;;;25.80;46.00;;;;;;4919686;28;45978;-43
2023/07/24 09:37:26;;;;;;;5.17;4.50;;;25.80;45.90;;;;;;4915587;28;45273;-45
2023/07/24 09:39:52;;;;;;;5.55;4.78;;;25.80;46.00;;;;;;4935456;28;46268;-44
2023/07/24 09:42:18;;;;;;;5.40;4.28;;;25.80;46.00;;;;;;4919552;28;45719;-44
2023/07/24 09:44:43;;;;;;;5.95;4.70;;;25.80;46.00;;;;;;4930880;28;45456;-45
2023/07/24 09:47:09;;;;;;;5.47;4.50;;;25.80;46.00;;;;;;4893286;28;46318;-44
2023/07/24 09:49:34;;;;;;;6.20;4.87;;;25.80;46.00;;;;;;4902299;28;45370;-43
2023/07/24 09:52:00;;;;;;;5.40;4.53;;;25.80;46.00;;;;;;4897511;28;45235;-45
2023/07/24 09:54:32;;;;;;;5.63;4.90;;;25.80;46.00;;;;;;4911805;28;45342;-43
2023/07/24 09:56:58;;;;;;;5.28;4.78;;;25.80;46.10;;;;;;4891945;28;45571;-44
2023/07/24 09:59:24;;;;;;;6.43;5.30;;;25.80;46.10;;;;;;4912338;28;45941;-46
2023/07/24 10:01:51;;;;;;;5.83;5.10;;;25.80;46.10;;;;;;4889425;28;45493;-46
2023/07/24 10:04:16;;;;;;;5.30;4.80;;;25.80;46.10;;;;;;4927173;28;45262;-44
2023/07/24 10:06:43;;;;;;;5.53;4.53;;;25.80;46.10;;;;;;4911490;28;46085;-47
2023/07/24 10:09:08;;;;;;;5.43;4.68;;;25.80;46.20;;;;;;4906793;28;46724;-43
2023/07/24 10:11:34;;;;;;;5.60;5.00;;;25.80;46.10;;;;;;4917465;28;45182;-46
2023/07/24 10:14:00;;;;;;;5.57;4.70;;;25.80;46.20;;;;;;4930381;28;45457;-43
2023/07/24 10:16:25;;;;;;;5.17;4.60;;;25.80;46.20;;;;;;4888987;28;45824;-44
2023/07/24 10:18:51;;;;;;;6.97;4.70;;;25.80;46.20;;;;;;4896186;28;45977;-45
2023/07/24 10:21:16;;;;;;;5.80;5.07;;;25.80;46.20;;;;;;4915924;28;46330;-44
2023/07/24 10:23:48;;;;;;;6.50;5.00;;;25.80;46.20;;;;;;4930337;28;45345;-45
2023/07/24 10:26:15;;;;;;;7.32;4.95;;;25.80;46.20;;;;;;4922077;28;45354;-46
2023/07/24 10:28:41;;;;;;;5.78;5.03;;;25.80;46.20;;;;;;4918438;28;46582;-45
2023/07/24 10:31:23;;;;;;;5.70;5.03;;;25.80;46.20;;;;;;4894486;28;45657;-44
2023/07/24 10:33:49;;;;;;;7.53;5.65;;;25.80;46.30;;;;;;4925200;28;45583;-44
2023/07/24 10:36:19;;;;;;;6.68;5.25;;;25.80;46.80;;;;;;4922896;28;45221;-46
2023/07/24 10:38:44;;;;;;;6.13;5.30;;;25.80;46.30;;;;;;4936729;28;45963;-45
2023/07/24 10:41:12;;;;;;;6.87;5.77;;;25.80;46.30;;;;;;4910716;28;45599;-46
2023/07/24 10:43:58;;;;;;;6.57;5.43;;;25.80;46.30;;;;;;4910220;28;45238;-44
2023/07/24 10:46:38;;;;;;;6.55;5.35;;;25.80;46.30;;;;;;4890663;28;45850;-46
2023/07/24 10:49:04;;;;;;;6.17;5.10;;;25.80;46.30;;;;;;4931430;28;45271;-45
2023/07/24 10:51:32;;;;;;;6.90;5.53;;;25.80;46.30;;;;;;4915356;28;46046;-45
2023/07/24 10:53:58;;;;;;;6.78;5.78;;;25.80;46.30;;;;;;4912717;28;45248;-44
2023/07/24 10:56:23;;;;;;;6.65;5.72;;;25.80;46.30;;;;;;4911391;28;46282;-44
2023/07/24 10:58:49;;;;;;;8.15;5.63;;;25.80;46.30;;;;;;4913451;28;46169;-45
2023/07/24 11:01:14;;;;;;;7.03;5.65;;;25.80;46.30;;;;;;4894772;28;45854;-44
2023/07/24 11:03:41;;;;;;;6.68;5.72;;;25.80;46.30;;;;;;4900485;28;45878;-44
2023/07/24 11:06:18;;;;;;;7.00;5.90;;;25.80;46.30;;;;;;4898532;28;45746;-45
2023/07/24 11:09:00;;;;;;;5.97;5.32;;;25.80;46.30;;;;;;4909078;28;47253;-44
2023/07/24 11:11:33;;;;;;;7.20;5.80;;;25.80;46.30;;;;;;4898284;28;45136;-45
2023/07/24 11:14:00;;;;;;;7.68;5.85;;;25.80;46.30;;;;;;4916729;28;45276;-44
2023/07/24 11:16:26;;;;;;;8.27;6.17;;;25.80;46.40;;;;;;4897488;28;45178;-44
2023/07/24 11:18:52;;;;;;;6.40;5.45;;;25.80;46.30;;;;;;4911127;28;45529;-44
2023/07/24 11:21:17;;;;;;;6.70;5.87;;;25.80;46.30;;;;;;4888091;28;45476;-44
2023/07/24 11:23:53;;;;;;;6.73;5.63;;;25.80;46.30;;;;;;4888758;28;45767;-45
2023/07/24 11:26:24;;;;;;;6.72;5.68;;;25.80;46.30;;;;;;4905124;28;45218;-45
2023/07/24 11:28:50;;;;;;;7.57;5.32;;;25.80;46.40;;;;;;4914722;28;45994;-44
2023/07/24 11:31:19;;;;;;;7.40;5.70;;;25.80;46.30;;;;;;4885952;28;45374;-44
2023/07/24 11:33:44;;;;;;;6.70;5.65;;;25.80;46.30;;;;;;4892291;28;45347;-45
2023/07/24 11:36:10;;;;;;;6.53;5.45;;;25.80;46.40;;;;;;4903508;28;45323;-45
2023/07/24 11:38:37;;;;;;;7.68;5.85;;;25.80;46.30;;;;;;4912741;28;46353;-45
2023/07/24 11:41:03;;;;;;;7.05;5.63;;;25.80;46.40;;;;;;4911120;28;45370;-45
2023/07/24 11:43:29;;;;;;;6.18;5.18;;;25.80;46.40;;;;;;4904360;28;45179;-45
2023/07/24 11:45:55;;;;;;;6.27;5.47;;;25.80;46.40;;;;;;4881311;28;45586;-44
2023/07/24 11:48:21;;;;;;;7.35;5.57;;;25.80;46.40;;;;;;4908771;28;45169;-45
2023/07/24 11:50:54;;;;;;;6.63;5.90;;;25.80;46.40;;;;;;4896840;28;45531;-44
2023/07/24 11:53:24;;;;;;;6.85;5.78;;;25.80;46.40;;;;;;4923846;28;45486;-44
2023/07/24 11:55:51;;;;;;;6.93;5.68;;;25.80;46.40;;;;;;4917078;28;46186;-45
2023/07/24 11:58:16;;;;;;;5.75;5.15;;;25.80;46.40;;;;;;4938772;28;46341;-46
2023/07/24 12:00:42;;;;;;;6.40;5.63;;;25.80;46.40;;;;;;4914110;28;45100;-45
2023/07/24 12:03:08;;;;;;;6.50;5.50;;;25.80;46.40;;;;;;4933929;28;45560;-45
2023/07/24 12:05:40;;;;;;;6.65;5.85;;;25.80;46.40;;;;;;4898786;28;45742;-45
2023/07/24 12:08:06;;;;;;;6.78;5.68;;;25.80;46.40;;;;;;4936647;28;45659;-45
2023/07/24 12:10:31;;;;;;;6.43;5.60;;;25.80;46.40;;;;;;4897095;28;45425;-45
2023/07/24 12:13:00;;;;;;;6.10;5.38;;;25.80;46.50;;;;;;4929862;28;48180;-44
2023/07/24 12:15:26;;;;;;;6.57;5.75;;;25.80;46.40;;;;;;4907209;28;45741;-45
2023/07/24 12:17:53;;;;;;;7.05;5.53;;;25.80;46.40;;;;;;4903193;28;47107;-45
2023/07/24 12:20:19;;;;;;;6.00;5.35;;;25.80;46.40;;;;;;4918481;28;45578;-45
2023/07/24 12:22:45;;;;;;;6.53;5.63;;;25.80;46.40;;;;;;4932546;28;45279;-44
2023/07/24 12:25:10;;;;;;;7.20;5.73;;;25.80;46.40;;;;;;4915121;28;45698;-45
2023/07/24 12:27:37;;;;;;;6.57;5.67;;;25.80;46.40;;;;;;4925009;28;46207;-44
2023/07/24 12:30:03;;;;;;;6.90;5.80;;;25.80;46.40;;;;;;4916077;28;45217;-45
2023/07/24 12:32:29;;;;;;;6.50;5.40;;;25.80;46.50;;;;;;4876583;28;45342;-44
2023/07/24 12:34:54;;;;;;;6.32;5.30;;;25.80;46.50;;;;;;4933502;28;45096;-44
2023/07/24 12:37:20;;;;;;;6.72;5.40;;;25.80;46.50;;;;;;4897901;28;49035;-45
2023/07/24 12:39:46;;;;;;;7.20;5.72;;;25.80;46.50;;;;;;4920287;28;45116;-45
2023/07/24 12:42:11;;;;;;;6.47;5.40;;;25.80;46.50;;;;;;4917918;28;45607;-45
2023/07/24 12:44:37;;;;;;;6.40;5.20;;;25.80;46.50;;;;;;4936256;28;45480;-45
2023/07/24 12:47:04;;;;;;;6.53;5.60;;;25.80;46.50;;;;;;4917930;28;45569;-47
2023/07/24 12:49:29;;;;;;;6.95;5.53;;;25.80;46.50;;;;;;4911352;28;45254;-45
2023/07/24 12:51:55;;;;;;;6.57;5.63;;;25.80;46.50;;;;;;4899259;28;45671;-44
2023/07/24 12:54:22;;;;;;;6.10;5.50;;;25.80;46.60;;;;;;4937809;28;45331;-44
2023/07/24 12:56:48;;;;;;;7.78;5.90;;;25.80;46.60;;;;;;4924416;28;45506;-43
2023/07/24 12:59:13;;;;;;;6.68;5.65;;;25.80;46.60;;;;;;4915119;28;45587;-45
2023/07/24 13:01:39;;;;;;;7.13;5.50;;;25.80;46.60;;;;;;4905009;28;45502;-44
2023/07/24 13:04:04;;;;;;;7.53;5.55;;;25.80;46.60;;;;;;4933957;28;45234;-44
2023/07/24 13:06:30;;;;;;;5.68;5.07;;;25.80;46.60;;;;;;4919335;28;46851;-44
2023/07/24 13:08:56;;;;;;;6.00;5.40;;;25.80;46.60;;;;;;4934307;28;45353;-45
2023/07/24 13:11:21;;;;;;;6.35;5.47;;;25.80;46.60;;;;;;4907251;28;45948;-44
2023/07/24 13:13:47;;;;;;;5.95;5.30;;;25.80;46.70;;;;;;4930575;28;45520;-44
2023/07/24 13:16:13;;;;;;;6.88;5.28;;;25.80;46.60;;;;;;4917990;28;46061;-44
2023/07/24 13:18:38;;;;;;;7.55;5.72;;;25.80;46.60;;;;;;4924683;28;45194;-45
2023/07/24 13:21:06;;;;;;;6.20;5.47;;;25.80;46.60;;;;;;4894860;28;44693;-44
2023/07/24 13:23:31;;;;;;;7.67;5.57;;;25.80;46.70;;;;;;4929483;28;45246;-47
2023/07/24 13:25:57;;;;;;;6.47;5.37;;;25.80;46.70;;;;;;4902785;28;46658;-45
2023/07/24 13:28:22;;;;;;;7.13;5.80;;;25.80;46.70;;;;;;4938686;28;44654;-44
2023/07/24 13:30:48;;;;;;;6.10;5.30;;;25.80;46.70;;;;;;4910277;28;45730;-45
2023/07/24 13:33:14;;;;;;;6.37;5.67;;;25.80;46.80;;;;;;4919315;28;45388;-44
2023/07/24 13:35:39;;;;;;;6.40;5.35;;;25.80;46.70;;;;;;4915552;28;45272;-43
2023/07/24 13:38:05;;;;;;;5.88;5.28;;;25.80;46.70;;;;;;4934989;28;45423;-44
2023/07/24 13:40:30;;;;;;;6.38;5.50;;;25.80;46.80;;;;;;4921072;28;45864;-44
2023/07/24 13:42:56;;;;;;;5.95;5.20;;;25.80;46.80;;;;;;4907293;28;45879;-44
2023/07/24 13:45:22;;;;;;;5.38;4.75;;;25.80;46.80;;;;;;4903030;28;46263;-44
2023/07/24 13:47:47;;;;;;;6.10;5.10;;;25.80;46.80;;;;;;4924177;28;45948;-43
2023/07/24 13:50:13;;;;;;;5.50;4.90;;;25.80;46.80;;;;;;4922366;28;45321;-45
2023/07/24 13:52:38;;;;;;;5.60;4.93;;;25.80;46.80;;;;;;4915254;28;45556;-44
2023/07/24 13:55:07;;;;;;;6.63;5.50;;;25.80;46.80;;;;;;4919755;28;46106;-45
2023/07/24 13:57:33;;;;;;;6.60;5.32;;;25.80;46.90;;;;;;4899504;28;45385;-44
2023/07/24 13:59:58;;;;;;;6.13;5.10;;;25.80;46.90;;;;;;4930892;28;45222;-45
2023/07/24 14:02:24;;;;;;;6.47;5.17;;;25.80;46.90;;;;;;4893156;28;46218;-44
2023/07/24 14:04:50;;;;;;;7.70;5.47;;;25.80;46.90;;;;;;4883347;28;47210;-45
2023/07/24 14:07:15;;;;;;;7.30;5.40;;;25.80;46.90;;;;;;4927542;28;45380;-44
2023/07/24 14:09:41;;;;;;;6.57;5.20;;;25.80;46.90;;;;;;4934190;28;45228;-43
2023/07/24 14:12:07;;;;;;;5.68;4.97;;;25.80;46.90;;;;;;4932495;28;45301;-44
2023/07/24 14:14:32;;;;;;;5.97;4.80;;;25.80;46.90;;;;;;4934839;28;45864;-45
2023/07/24 14:16:58;;;;;;;6.53;4.83;;;25.80;46.90;;;;;;4914580;28;45866;-45
2023/07/24 14:19:23;;;;;;;5.18;4.68;;;25.80;46.90;;;;;;4936636;28;45241;-44
2023/07/24 14:21:50;;;;;;;6.10;4.90;;;25.80;46.90;;;;;;4926660;28;45304;-45
2023/07/24 14:24:15;;;;;;;5.87;4.63;;;25.80;46.90;;;;;;4942157;28;46193;-43
2023/07/24 14:26:41;;;;;;;5.97;4.80;;;25.80;47.00;;;;;;4915707;28;45261;-44
2023/07/24 14:29:06;;;;;;;5.40;4.90;;;25.80;47.60;;;;;;4942527;28;45150;-43
2023/07/24 14:31:32;;;;;;;6.37;4.93;;;25.80;47.00;;;;;;4921683;28;45905;-44
2023/07/24 14:33:58;;;;;;;6.10;4.93;;;25.80;47.00;;;;;;4937562;28;45131;-44
2023/07/24 14:36:23;;;;;;;8.23;5.10;;;25.90;47.10;;;;;;4919892;28;45310;-45
2023/07/24 14:38:50;;;;;;;6.68;4.72;;;25.80;47.10;;;;;;4920301;28;45317;-43
2023/07/24 14:41:16;;;;;;;6.75;4.97;;;25.90;47.10;;;;;;4895138;28;45323;-45
2023/07/24 14:43:42;;;;;;;5.95;4.63;;;25.80;47.00;;;;;;4947388;28;46157;-44
2023/07/24 14:46:07;;;;;;;5.15;4.47;;;25.90;47.10;;;;;;4923574;28;45294;-44
2023/07/24 14:48:33;;;;;;;8.23;4.97;;;25.80;47.10;;;;;;4912404;28;44706;-44
2023/07/24 14:50:58;;;;;;;6.32;4.50;;;25.90;47.20;;;;;;4918778;28;45730;-44
2023/07/24 14:53:24;;;;;;;6.82;4.70;;;25.90;47.20;;;;;;4947608;28;46193;-45
2023/07/24 14:55:49;;;;;;;7.07;4.90;;;25.90;47.20;;;;;;4924202;28;45427;-44
2023/07/24 14:58:15;;;;;;;7.10;4.53;;;25.80;47.20;;;;;;4913366;28;45474;-44
2023/07/24 15:00:41;;;;;;;7.43;4.70;;;25.90;47.20;;;;;;4916181;28;45642;-44
2023/07/24 15:03:06;;;;;;;6.70;4.80;;;25.90;47.30;;;;;;4940850;28;45937;-44
2023/07/24 15:05:32;;;;;;;6.47;4.32;;;25.90;47.20;;;;;;4927805;28;45570;-45
2023/07/24 15:07:58;;;;;;;5.63;4.45;;;25.90;47.30;;;;;;4924170;28;45878;-45
2023/07/24 15:10:23;;;;;;;5.63;4.50;;;25.90;47.30;;;;;;4918049;28;45263;-46
2023/07/24 15:12:49;;;;;;;6.07;4.50;;;25.90;47.30;;;;;;4937042;28;45310;-44
2023/07/24 15:15:14;;;;;;;6.27;4.40;;;25.90;47.30;;;;;;4932786;28;45221;-45
2023/07/24 15:17:40;;;;;;;5.93;4.30;;;25.90;47.30;;;;;;4928775;28;45845;-45
2023/07/24 15:20:08;;;;;;;5.40;4.57;;;25.90;47.30;;;;;;4897295;28;46519;-47
2023/07/24 15:22:34;;;;;;;5.43;4.30;;;25.90;47.30;;;;;;4915865;28;45701;-45
2023/07/24 15:24:59;;;;;;;6.33;4.43;;;25.90;47.30;;;;;;4946832;28;45555;-45
2023/07/24 15:27:25;;;;;;;5.03;4.03;;;25.90;47.30;;;;;;4930067;28;45277;-46
2023/07/24 15:29:51;;;;;;;5.23;4.30;;;25.90;47.30;;;;;;4930816;28;45625;-44
2023/07/24 15:32:17;;;;;;;5.70;4.30;;;25.90;47.30;;;;;;4892198;28;46170;-45
2023/07/24 15:34:43;;;;;;;6.10;4.60;;;25.90;47.40;;;;;;4932842;28;45228;-44
2023/07/24 15:37:09;;;;;;;5.93;4.53;;;25.90;47.30;;;;;;4906992;28;45820;-46
2023/07/24 15:39:35;;;;;;;5.57;4.13;;;25.90;47.30;;;;;;4937333;28;45396;-44
2023/07/24 15:42:01;;;;;;;5.30;3.90;;;25.90;47.30;;;;;;4908992;28;46829;-45
2023/07/24 15:44:27;;;;;;;4.63;4.07;;;25.90;47.30;;;;;;4928671;28;45655;-44